TimeCDT,TemperatureF,Dew PointF,Humidity,Sea Level PressureIn,VisibilityMPH,Wind Direction,Wind SpeedMPH,Gust SpeedMPH,PrecipitationIn,Events,Conditions,WindDirDegrees,DateUTC
12:56 AM,30.0,22.1,72,30.39,10.0,Calm,Calm,-,N/A,,Partly Cloudy,0,2013-03-27 05:56:00
1:56 AM,28.0,23.0,81,30.38,10.0,Calm,Calm,-,N/A,,Clear,0,2013-03-27 06:56:00
2:56 AM,26.1,23.0,88,30.38,10.0,Calm,Calm,-,N/A,,Clear,0,2013-03-27 07:56:00
3:56 AM,25.2,23.0,91,30.37,10.0,Calm,Calm,-,N/A,,Clear,0,2013-03-27 08:56:00
4:56 AM,24.1,22.1,92,30.39,10.0,Calm,Calm,-,N/A,,Clear,0,2013-03-27 09:56:00
5:56 AM,23.0,21.0,92,30.41,10.0,Calm,Calm,-,N/A,,Clear,0,2013-03-27 10:56:00
6:56 AM,22.1,21.0,96,30.41,10.0,Calm,Calm,-,N/A,,Clear,0,2013-03-27 11:56:00
7:56 AM,28.0,27.1,96,30.43,10.0,Calm,Calm,-,N/A,,Clear,0,2013-03-27 12:56:00
8:56 AM,37.9,25.2,60,30.44,10.0,Calm,Calm,-,N/A,,Clear,0,2013-03-27 13:56:00
9:56 AM,41.0,24.1,51,30.45,10.0,Calm,Calm,-,N/A,,Clear,0,2013-03-27 14:56:00
10:56 AM,43.0,24.1,47,30.45,10.0,NNW,8.1,-,N/A,,Clear,330,2013-03-27 15:56:00
11:56 AM,45.0,24.1,44,30.44,10.0,WSW,6.9,-,N/A,,Clear,240,2013-03-27 16:56:00
12:56 PM,48.9,26.1,41,30.43,10.0,Variable,6.9,-,N/A,,Clear,0,2013-03-27 17:56:00
1:56 PM,50.0,24.1,36,30.40,10.0,WNW,6.9,-,N/A,,Clear,300,2013-03-27 18:56:00
2:56 PM,50.9,23.0,34,30.38,10.0,West,6.9,-,N/A,,Clear,280,2013-03-27 19:56:00
3:56 PM,52.9,22.1,30,30.35,10.0,Variable,6.9,-,N/A,,Clear,0,2013-03-27 20:56:00
4:56 PM,54.0,24.1,31,30.34,10.0,Calm,Calm,-,N/A,,Clear,0,2013-03-27 21:56:00
5:56 PM,52.9,23.0,31,30.34,10.0,NNW,8.1,-,N/A,,Clear,340,2013-03-27 22:56:00
6:56 PM,48.9,24.1,38,30.35,10.0,Calm,Calm,-,N/A,,Clear,0,2013-03-27 23:56:00
7:56 PM,43.0,28.0,56,30.35,10.0,Calm,Calm,-,N/A,,Clear,0,2013-03-28 00:56:00
8:56 PM,37.9,30.0,73,30.35,10.0,Calm,Calm,-,N/A,,Clear,0,2013-03-28 01:56:00
9:56 PM,36.0,31.1,82,30.36,10.0,Calm,Calm,-,N/A,,Clear,0,2013-03-28 02:56:00
10:56 PM,34.9,31.1,86,30.35,10.0,Calm,Calm,-,N/A,,Clear,0,2013-03-28 03:56:00
11:56 PM,32.9,30.0,89,30.35,10.0,Calm,Calm,-,N/A,,Clear,0,2013-03-28 04:56:00